Friday, April 20, 2018, 3:56 PM EDT
Back to Local

KPSM, Pease Air Force Base / Portsmouth

Location: Portsmouth, NH, United States Lat: 43.083
Local Time: 3:56 PM EDT (19:56 GMT) Lon: -70.817
Time Zone: US/Eastern Elev: 101 ft

Show me the last for .
Show Decoded

2018-04-20 14:56 METAR KPSM 201856Z 31017G23KT 10SM SCT050 SCT250 11/M03 A3000 RMK AO2A SLP162
                 T01081026 =
2018-04-20 13:56 METAR KPSM 201756Z 29014G19KT 10SM SCT050 BKN060 10/M03 A2999 RMK AO2A PK WND
                 28026/12 SLP158 T01041026 10107 20045 52013 =
2018-04-20 12:56 METAR KPSM 201656Z 32019KT 10SM SCT050 SCT080 BKN250 10/M03 A2998 RMK AO2A PK
                 WND 31027/14 SLP155 T00971026 =
2018-04-20 11:56 METAR KPSM 201556Z 30019G26KT 10SM FEW045 SCT080 BKN250 09/M03 A2996 RMK AO2A PK
                 WND 29026/40 SLP148 T00891027 =
2018-04-20 10:56 METAR KPSM 201456Z 30016G22KT 10SM SCT040 BKN250 09/M03 A2995 RMK AO2A SLP145
                 T00851031 52017 =
2018-04-20 09:56 METAR KPSM 201356Z 31013KT 10SM FEW040 FEW075 SCT250 07/M03 A2994 RMK AO2A
                 SLP142 T00711029 =
2018-04-20 08:56 METAR KPSM 201256Z 31015G24KT 10SM FEW075 SCT250 06/M03 A2992 RMK AO2A PK WND
                 30027/40 SLP135 T00591030 =
2018-04-20 07:56 METAR KPSM 201156Z 30010G19KT 10SM FEW080 SCT250 04/M03 A2990 RMK AO2A SLP128
                 70011 T00441034 10044 20021 52023 =
2018-04-20 06:56 METAR KPSM 201056Z COR 28010G16KT 10SM FEW055 SCT080 SCT200 03/M03 A2989 RMK
                 AO2A SLP125 T00281033 COR 1056 =
2018-04-20 05:56 METAR KPSM 200956Z 29008KT 10SM FEW055 SCT080 SCT200 02/M03 A2986 RMK AO2A
                 SLP115 T00231032 =
2018-04-20 04:56 METAR KPSM 200856Z 29009KT 10SM BKN055 OVC070 03/M03 A2983 RMK AO2A SLP104
                 T00281027 52011 =
2018-04-20 03:56 METAR KPSM 200756Z 29012G16KT 10SM FEW035 BKN065 OVC090 03/M02 A2982 RMK AO2A
                 SLP101 T00291024 =
2018-04-20 02:56 METAR KPSM 200656Z 28010KT 10SM SCT033 BKN060 OVC090 03/M02 A2981 RMK AO2A
                 SLP098 T00301019 =
2018-04-20 01:56 METAR KPSM 200556Z 28012KT 10SM FEW065 SCT090 OVC120 03/M02 A2980 RMK AO2A
                 SLP094 60000 T00341019 10052 20034 52010 =
2018-04-20 00:56 METAR KPSM 200456Z 28007KT 10SM BKN050 OVC120 04/M02 A2979 RMK AO2A SLP091
                 T00371021 400690009 =
2018-04-19 23:56 METAR KPSM 200356Z 30008KT 10SM FEW050 BKN080 OVC100 04/M02 A2978 RMK AO2A
                 SLP087 T00381024 =
2018-04-19 22:56 METAR KPSM 200256Z 30012KT 10SM FEW060 BKN095 OVC120 04/M02 A2977 RMK AO2A
                 SLP084 60000 T00421024 51014 =
2018-04-19 21:56 METAR KPSM 200156Z 30004KT 10SM FEW035 SCT060 BKN075 OVC090 04/01 A2977 RMK AO2A
                 SLP084 T00410010 =
2018-04-19 20:56 METAR KPSM 200056Z 34011KT 10SM SCT024 BKN033 OVC060 05/01 A2976 RMK AO2A
                 RAB2359E54 SLP081 P0000 T00460007 =
2018-04-19 19:59 METAR KPSM 192359Z 32010KT 10SM -RA FEW029 OVC045 05/01 A2973 RMK AO2A RAB2359 =
2018-04-19 19:56 METAR KPSM 192356Z 31010KT 10SM FEW029 BKN043 OVC055 05/01 A2973 RMK AO2A SLP070
                 60000 T00520008 10069 20052 53017 =
2018-04-19 18:56 METAR KPSM 192256Z 33008KT 10SM FEW029 SCT039 BKN090 BKN200 06/01 A2969 RMK AO2A
                 SLP057 T00590010 =
2018-04-19 17:56 METAR KPSM 192156Z 33008KT 10SM SCT020 BKN030 OVC110 06/03 A2968 RMK AO2A RAE55
                 SLP054 P0000 T00620026 =
2018-04-19 16:56 METAR KPSM 192056Z 24004KT 10SM -RA SCT025 OVC035 06/03 A2968 RMK AO2A RAB13
                 SLP054 P0000 60000 T00610033 52011 =
2018-04-19 16:13 METAR KPSM 192013Z 20004KT 10SM -RA OVC050 06/03 A2966 RMK AO2A RAB13 =

Support USWX by starting your Amazon purchase here.